createdAt,value
2022-09-20T00:01:07.798Z,95058.72
2022-09-20T00:03:36.717Z,95054.72
2022-09-20T00:06:04.995Z,95053.06
2022-09-20T00:08:31.823Z,95054.22
2022-09-20T00:11:02.329Z,95049.31
2022-09-20T00:13:30.125Z,95053.59
2022-09-20T00:15:56.777Z,95057.34
2022-09-20T00:18:23.948Z,95058.63
2022-09-20T00:20:51.057Z,95051.06
2022-09-20T00:23:18.110Z,95055.44
2022-09-20T00:25:44.743Z,95032.84
2022-09-20T00:28:11.648Z,95041.63
2022-09-20T00:30:39.312Z,95038.09
2022-09-20T00:33:06.031Z,95046.44
2022-09-20T00:35:33.142Z,95039.66
2022-09-20T00:37:59.736Z,95035.25
2022-09-20T00:40:30.442Z,95028.19
2022-09-20T00:42:57.161Z,95042.94
2022-09-20T00:45:26.645Z,95037.25
2022-09-20T00:47:59.176Z,95039.16
2022-09-20T00:50:36.950Z,95030.22
2022-09-20T00:53:07.993Z,95040.41
2022-09-20T00:55:39.301Z,95028.06
2022-09-20T00:58:06.685Z,95034.03
2022-09-20T01:00:33.407Z,95042.81
2022-09-20T01:03:03.573Z,95026.97
2022-09-20T01:05:30.332Z,95029.34
2022-09-20T01:07:57.200Z,95017.28
2022-09-20T01:10:23.862Z,95027.19
2022-09-20T01:12:52.149Z,95020.69
2022-09-20T01:15:19.201Z,95030.28
2022-09-20T01:17:48.535Z,95024.31
2022-09-20T01:20:22.823Z,95030.94
2022-09-20T01:23:01.169Z,95033.19
2022-09-20T01:26:09.151Z,95033.31
2022-09-20T01:28:36.200Z,95017.69
2022-09-20T01:31:17.443Z,95023.09
2022-09-20T01:33:54.085Z,95012.94
2022-09-20T01:36:58.909Z,95022.03
2022-09-20T01:39:37.530Z,95019.69
2022-09-20T01:42:09.602Z,95029.41
2022-09-20T01:44:48.608Z,95019.56
2022-09-20T01:47:27.533Z,95023.38
2022-09-20T01:50:07.721Z,95011.53
2022-09-20T01:53:01.661Z,95027.63
2022-09-20T01:55:54.177Z,95024.09
2022-09-20T01:59:01.908Z,95030.78
2022-09-20T02:01:53.555Z,95026.50
2022-09-20T02:04:42.075Z,95033.38
2022-09-20T02:07:33.229Z,95030.41
2022-09-20T02:10:08.797Z,95032.66
2022-09-20T02:12:54.469Z,95035.06
2022-09-20T02:15:39.275Z,95037.50
2022-09-20T02:18:43.956Z,95035.06
2022-09-20T02:21:30.410Z,95018.25
2022-09-20T02:24:15.668Z,95033.66
2022-09-20T02:27:19.344Z,95021.81
2022-09-20T02:29:51.708Z,95035.78
2022-09-20T02:32:25.064Z,95035.78
2022-09-20T02:35:06.331Z,95035.06
2022-09-20T02:37:54.324Z,95041.69
2022-09-20T02:40:31.722Z,95035.03
2022-09-20T02:43:19.664Z,95023.22
2022-09-20T02:46:18.226Z,95033.50
2022-09-20T02:48:44.856Z,95028.78
2022-09-20T02:51:18.538Z,95037.88
2022-09-20T02:54:23.637Z,95034.41
2022-09-20T02:57:27.028Z,95036.66
2022-09-20T02:59:58.769Z,95036.41
2022-09-20T03:02:51.449Z,95033.31
2022-09-20T03:05:33.321Z,95043.69
2022-09-20T03:08:22.090Z,95036.81
2022-09-20T03:11:02.452Z,95042.72
2022-09-20T03:13:53.511Z,95042.28
2022-09-20T03:16:51.930Z,95032.63
2022-09-20T03:19:54.830Z,95030.44
2022-09-20T03:22:30.152Z,95044.41
2022-09-20T03:25:17.894Z,95040.53
2022-09-20T03:28:05.545Z,95038.44
2022-09-20T03:31:00.136Z,95039.50
2022-09-20T03:33:51.393Z,95046.69
2022-09-20T03:36:32.770Z,95027.28
2022-09-20T03:39:14.742Z,95033.22
2022-09-20T03:41:59.925Z,95037.06
2022-09-20T03:44:42.565Z,95037.31
2022-09-20T03:47:25.561Z,95024.28
2022-09-20T03:50:11.346Z,95038.19
2022-09-20T03:52:42.476Z,95040.06
2022-09-20T03:55:31.213Z,95030.38
2022-09-20T03:57:57.770Z,95034.16
2022-09-20T04:00:30.261Z,95036.34
2022-09-20T04:03:19.727Z,95037.06
2022-09-20T04:06:34.520Z,95029.78
2022-09-20T04:09:22.831Z,95031.66
2022-09-20T04:12:04.696Z,95032.69
2022-09-20T04:14:43.197Z,95035.44
2022-09-20T04:17:31.470Z,95038.25
2022-09-20T04:20:07.850Z,95040.84
2022-09-20T04:22:35.059Z,95041.75
2022-09-20T04:25:06.328Z,95042.66
2022-09-20T04:27:43.031Z,95042.09
2022-09-20T04:30:22.652Z,95041.75
2022-09-20T04:33:15.468Z,95021.53
2022-09-20T04:36:14.522Z,95041.03
2022-09-20T04:38:41.622Z,95045.50
2022-09-20T04:41:52.901Z,95043.25
2022-09-20T04:44:22.433Z,95055.53
2022-09-20T04:47:10.348Z,95054.91
2022-09-20T04:50:06.327Z,95061.75
2022-09-20T04:52:34.529Z,95058.94
2022-09-20T04:55:10.375Z,95063.63
2022-09-20T04:57:46.051Z,95060.38
2022-09-20T05:00:17.092Z,95062.25
2022-09-20T05:02:58.603Z,95061.16
2022-09-20T05:05:31.165Z,95062.09
2022-09-20T05:08:10.070Z,95071.38
2022-09-20T05:10:40.041Z,95072.22
2022-09-20T05:13:38.442Z,95067.94
2022-09-20T05:16:07.903Z,95077.63
2022-09-20T05:18:56.241Z,95080.38
2022-09-20T05:21:47.680Z,95077.22
2022-09-20T05:24:47.360Z,95077.47
2022-09-20T05:27:48.526Z,95079.81
2022-09-20T05:30:26.545Z,95083.66
2022-09-20T05:33:10.294Z,95083.19
2022-09-20T05:35:44.963Z,95081.34
2022-09-20T05:38:32.766Z,95082.28
2022-09-20T05:41:19.037Z,95078.47
2022-09-20T05:43:55.829Z,95076.72
2022-09-20T05:46:50.301Z,95077.53
2022-09-20T05:49:50.610Z,95075.75
2022-09-20T05:52:43.222Z,95068.59
2022-09-20T05:55:38.671Z,95075.25
2022-09-20T05:58:39.036Z,95081.31
2022-09-20T06:01:17.667Z,95082.94
2022-09-20T06:03:49.090Z,95079.19
2022-09-20T06:06:53.461Z,95076.16
2022-09-20T06:09:27.344Z,95079.41
2022-09-20T06:11:53.878Z,95081.31
2022-09-20T06:14:34.964Z,95074.59
2022-09-20T06:17:23.081Z,95038.97
2022-09-20T06:19:53.325Z,95081.22
2022-09-20T06:22:29.973Z,95076.88
2022-09-20T06:25:04.291Z,95076.97
2022-09-20T06:27:35.672Z,95083.25
2022-09-20T06:30:06.012Z,95086.81
2022-09-20T06:32:34.807Z,95077.84
2022-09-20T06:35:02.672Z,95070.03
2022-09-20T06:38:10.656Z,95075.84
2022-09-20T06:41:03.673Z,95086.50
2022-09-20T06:43:31.569Z,95092.44
2022-09-20T06:45:58.755Z,95078.72
2022-09-20T06:48:25.502Z,95091.16
2022-09-20T06:50:52.453Z,95094.69
2022-09-20T06:53:26.784Z,95102.84
2022-09-20T06:55:53.651Z,95098.47
2022-09-20T06:58:20.437Z,95095.88
2022-09-20T07:00:47.188Z,95099.91
2022-09-20T07:03:14.144Z,95097.28
2022-09-20T07:05:40.834Z,95099.16
2022-09-20T07:08:07.472Z,95084.56
2022-09-20T07:10:34.126Z,95092.38
2022-09-20T07:13:02.160Z,95096.88
2022-09-20T07:15:30.898Z,95099.91
2022-09-20T07:17:57.534Z,95101.94
2022-09-20T07:20:24.354Z,95099.19
2022-09-20T07:22:51.109Z,95100.00
2022-09-20T07:25:18.381Z,95105.63
2022-09-20T07:27:46.555Z,95103.00
2022-09-20T07:30:14.807Z,95107.03
2022-09-20T07:32:41.783Z,95097.63
2022-09-20T07:35:10.158Z,95101.78
2022-09-20T07:37:37.409Z,95108.72
2022-09-20T07:40:14.772Z,95100.31
2022-09-20T07:42:41.506Z,95089.06
2022-09-20T07:45:08.560Z,95100.47
2022-09-20T07:47:35.647Z,95100.63
2022-09-20T07:50:03.432Z,95097.56
2022-09-20T07:52:30.060Z,95108.13
2022-09-20T07:54:56.680Z,95101.16
2022-09-20T07:57:23.536Z,95107.03
2022-09-20T07:59:50.192Z,95087.53
2022-09-20T08:02:17.068Z,95098.47
2022-09-20T08:04:44.118Z,95088.81
2022-09-20T08:07:10.984Z,95095.91
2022-09-20T08:09:37.621Z,95089.34
2022-09-20T08:14:52.534Z,95096.13
2022-09-20T08:17:19.677Z,95097.75
2022-09-20T08:19:46.398Z,95100.78
2022-09-20T08:22:13.197Z,95091.81
2022-09-20T08:24:39.984Z,95101.44
2022-09-20T08:27:06.590Z,95098.50
2022-09-20T08:29:33.218Z,95106.88
2022-09-20T08:32:01.632Z,95106.06
2022-09-20T08:34:28.377Z,95106.72
2022-09-20T08:36:56.676Z,95098.03
2022-09-20T08:42:28.637Z,95095.88
2022-09-20T08:45:05.945Z,95097.84
2022-09-20T08:47:38.361Z,95104.22
2022-09-20T08:50:09.840Z,95115.00
2022-09-20T08:52:40.302Z,95108.63
2022-09-20T08:55:18.708Z,95115.53
2022-09-20T08:57:50.991Z,95120.13
2022-09-20T09:00:21.176Z,95105.56
2022-09-20T09:02:50.652Z,95127.84
2022-09-20T09:05:32.108Z,95112.34
2022-09-20T09:08:00.861Z,95113.53
2022-09-20T09:10:54.900Z,95116.78
2022-09-20T09:13:27.530Z,95122.38
2022-09-20T09:16:00.356Z,95113.41
2022-09-20T09:18:32.713Z,95110.94
2022-09-20T09:21:00.285Z,95114.13
2022-09-20T09:23:28.017Z,95119.22
2022-09-20T09:25:55.453Z,95106.44
2022-09-20T09:28:26.814Z,95111.34
2022-09-20T09:30:54.312Z,95097.31
2022-09-20T09:33:31.545Z,95105.06
2022-09-20T09:36:03.838Z,95112.03
2022-09-20T09:38:32.825Z,95103.94
2022-09-20T09:41:01.890Z,95104.31
2022-09-20T09:43:35.440Z,95110.56
2022-09-20T09:46:23.298Z,95110.16
2022-09-20T09:49:12.429Z,95105.44
2022-09-20T09:51:42.523Z,95102.41
2022-09-20T09:54:17.078Z,95105.94
2022-09-20T09:56:49.450Z,95114.69
2022-09-20T09:59:40.500Z,95108.38
2022-09-20T10:02:34.186Z,95105.91
2022-09-20T10:05:16.093Z,95098.81
2022-09-20T10:08:07.974Z,95104.53
2022-09-20T10:10:41.601Z,95100.88
2022-09-20T10:13:11.072Z,95099.50
2022-09-20T10:15:49.465Z,95107.75
2022-09-20T10:18:25.014Z,95110.63
2022-09-20T10:21:10.220Z,95114.13
2022-09-20T10:24:04.053Z,95111.69
2022-09-20T10:26:44.438Z,95115.06
2022-09-20T10:29:29.578Z,95116.44
2022-09-20T10:32:05.101Z,95115.88
2022-09-20T10:34:46.929Z,95104.50
2022-09-20T10:37:25.356Z,95097.25
2022-09-20T10:40:05.026Z,95099.47
2022-09-20T10:43:06.393Z,95105.78
2022-09-20T10:46:14.089Z,95106.13
2022-09-20T10:48:33.801Z,95098.50
2022-09-20T10:51:19.463Z,95101.94
2022-09-20T10:54:10.752Z,95103.06
2022-09-20T10:56:40.685Z,95111.34
2022-09-20T10:59:12.923Z,95106.03
2022-09-20T11:02:01.890Z,95109.06
2022-09-20T11:05:08.564Z,95110.63
2022-09-20T11:07:58.923Z,95121.31
2022-09-20T11:10:36.513Z,95111.63
2022-09-20T11:13:28.056Z,95107.09
2022-09-20T11:16:01.060Z,95106.50
2022-09-20T11:18:59.294Z,95111.09
2022-09-20T11:21:34.353Z,95102.19
2022-09-20T11:24:24.470Z,95112.38
2022-09-20T11:26:53.674Z,95112.50
2022-09-20T11:29:22.910Z,95129.22
2022-09-20T11:31:53.287Z,95117.31
2022-09-20T11:34:40.313Z,95114.69
2022-09-20T11:37:07.026Z,95117.66
2022-09-20T11:39:42.871Z,95121.31
2022-09-20T11:42:16.848Z,95115.91
2022-09-20T11:44:43.721Z,95114.06
2022-09-20T11:47:53.346Z,95108.50
2022-09-20T11:50:45.323Z,95114.25
2022-09-20T11:53:34.469Z,95118.00
2022-09-20T11:56:26.280Z,95122.56
2022-09-20T11:58:59.110Z,95110.88
2022-09-20T12:01:33.137Z,95107.13
2022-09-20T12:04:30.674Z,95105.63
2022-09-20T12:07:18.041Z,95094.63
2022-09-20T12:09:59.596Z,95110.13
2022-09-20T12:12:39.480Z,95101.72
2022-09-20T12:15:22.544Z,95100.91
2022-09-20T12:17:49.806Z,95100.13
2022-09-20T12:20:42.601Z,95100.59
2022-09-20T12:23:43.359Z,95097.50
2022-09-20T12:26:18.936Z,95098.38
2022-09-20T12:28:52.771Z,95094.59
2022-09-20T12:31:22.034Z,95088.97
2022-09-20T12:34:10.492Z,95095.34
2022-09-20T12:36:43.273Z,95085.09
2022-09-20T12:39:15.155Z,95087.13
2022-09-20T12:42:28.299Z,95087.94
2022-09-20T12:45:04.518Z,95090.56
2022-09-20T12:47:35.637Z,95084.00
2022-09-20T12:50:23.568Z,95086.53
2022-09-20T12:53:00.743Z,95085.63
2022-09-20T12:55:27.551Z,95093.69
2022-09-20T12:57:58.617Z,95091.53
2022-09-20T13:00:36.403Z,95081.44
2022-09-20T13:03:36.438Z,95075.75
2022-09-20T13:06:11.108Z,95082.19
2022-09-20T13:08:51.941Z,95082.41
2022-09-20T13:11:30.461Z,95075.09
2022-09-20T13:14:06.277Z,95081.19
2022-09-20T13:16:54.844Z,95077.63
2022-09-20T13:19:28.766Z,95088.03
2022-09-20T13:22:14.360Z,95085.81
2022-09-20T13:24:45.182Z,95087.06
2022-09-20T13:27:42.633Z,95092.59
2022-09-20T13:30:28.905Z,95085.00
2022-09-20T13:32:55.601Z,95084.03
2022-09-20T13:35:24.136Z,95083.28
2022-09-20T13:37:54.469Z,95084.34
2022-09-20T13:40:24.719Z,95082.72
2022-09-20T13:43:12.984Z,95082.56
2022-09-20T13:45:42.459Z,95081.22
2022-09-20T13:48:09.608Z,95080.56
2022-09-20T13:50:42.009Z,95080.72
2022-09-20T13:53:33.266Z,95078.38
2022-09-20T13:56:10.513Z,95087.41
2022-09-20T13:58:38.064Z,95081.59
2022-09-20T14:01:06.870Z,95087.22
2022-09-20T14:03:34.900Z,95077.31
2022-09-20T14:06:04.438Z,95087.16
2022-09-20T14:08:38.222Z,95082.72
2022-09-20T14:11:08.782Z,95088.38
2022-09-20T14:13:41.177Z,95083.50
2022-09-20T14:16:09.096Z,95087.88
2022-09-20T14:18:37.934Z,95073.50
2022-09-20T14:21:06.599Z,95080.59
2022-09-20T14:23:33.232Z,95076.47
2022-09-20T14:26:27.780Z,95084.72
2022-09-20T14:28:54.828Z,95081.56
2022-09-20T14:31:23.045Z,95078.63
2022-09-20T14:33:55.313Z,95084.09
2022-09-20T14:36:24.746Z,95066.34
2022-09-20T14:38:54.371Z,95075.03
2022-09-20T14:41:35.768Z,95076.94
2022-09-20T14:44:03.211Z,95070.03
2022-09-20T14:46:36.064Z,95067.00
2022-09-20T14:49:22.330Z,95063.06
2022-09-20T14:51:49.193Z,95061.59
2022-09-20T14:54:33.028Z,95065.38
2022-09-20T14:56:59.701Z,95064.03
2022-09-20T14:59:27.223Z,95052.91
2022-09-20T15:02:14.278Z,95063.88
2022-09-20T15:04:42.417Z,95057.28
2022-09-20T15:07:13.248Z,95051.91
2022-09-20T15:09:39.872Z,95058.34
2022-09-20T15:12:12.346Z,95060.75
2022-09-20T15:14:40.788Z,95057.38
2022-09-20T15:17:09.633Z,95063.38
2022-09-20T15:19:36.266Z,95064.50
2022-09-20T15:22:02.886Z,95062.06
2022-09-20T15:24:29.546Z,95065.53
2022-09-20T15:26:56.225Z,95066.94
2022-09-20T15:29:22.838Z,95072.13
2022-09-20T15:31:49.601Z,95070.72
2022-09-20T15:34:16.730Z,95067.63
2022-09-20T15:36:43.718Z,95078.72
2022-09-20T15:39:10.869Z,95079.94
2022-09-20T15:41:38.009Z,95077.00
2022-09-20T15:44:04.993Z,95081.03
2022-09-20T15:46:32.285Z,95088.06
2022-09-20T15:49:03.262Z,95095.09
2022-09-20T15:51:33.064Z,95089.75
2022-09-20T15:54:02.428Z,95082.56
2022-09-20T15:56:31.184Z,95085.75
2022-09-20T15:59:03.258Z,95079.84
2022-09-20T16:01:33.153Z,95090.41
2022-09-20T16:04:00.261Z,95087.41
2022-09-20T16:06:26.944Z,95072.03
2022-09-20T16:08:53.665Z,95084.19
2022-09-20T16:11:22.812Z,95084.56
2022-09-20T16:13:56.860Z,95076.41
2022-09-20T16:16:24.879Z,95089.28
2022-09-20T16:19:10.896Z,95087.13
2022-09-20T16:21:39.651Z,95084.41
2022-09-20T16:24:07.128Z,95096.75
2022-09-20T16:26:34.735Z,95093.72
2022-09-20T16:29:02.629Z,95095.72
2022-09-20T16:31:43.220Z,95098.56
2022-09-20T16:34:13.455Z,95095.09
2022-09-20T16:36:44.214Z,95096.75
2022-09-20T16:39:11.933Z,95100.56
2022-09-20T16:41:39.641Z,95108.50
2022-09-20T16:44:09.841Z,95103.09
2022-09-20T16:46:37.456Z,95100.78
2022-09-20T16:49:09.677Z,95102.50
2022-09-20T16:51:37.909Z,95105.84
2022-09-20T16:54:12.474Z,95096.97
2022-09-20T16:56:45.109Z,95108.91
2022-09-20T16:59:12.628Z,95106.72
2022-09-20T17:01:40.430Z,95118.41
2022-09-20T17:04:07.552Z,95117.59
2022-09-20T17:06:36.213Z,95116.19
2022-09-20T17:09:04.441Z,95122.63
2022-09-20T17:11:34.725Z,95122.47
2022-09-20T17:14:01.365Z,95124.97
2022-09-20T17:16:30.645Z,95137.19
2022-09-20T17:18:59.489Z,95130.94
2022-09-20T17:21:27.677Z,95115.91
2022-09-20T17:23:56.339Z,95145.63
2022-09-20T17:26:26.843Z,95147.47
2022-09-20T17:28:58.200Z,95143.34
2022-09-20T17:31:33.866Z,95151.25
2022-09-20T17:34:05.097Z,95149.47
2022-09-20T17:36:34.220Z,95150.78
2022-09-20T17:39:04.521Z,95154.25
2022-09-20T17:41:32.836Z,95152.56
2022-09-20T17:44:02.792Z,95108.41
2022-09-20T17:46:31.842Z,95153.56
2022-09-20T17:49:01.235Z,95157.66
2022-09-20T17:51:32.017Z,95159.78
2022-09-20T17:53:59.152Z,95160.09
2022-09-20T17:56:28.815Z,95165.06
2022-09-20T17:58:56.889Z,95164.41
2022-09-20T18:01:23.911Z,95164.19
2022-09-20T18:03:50.686Z,95165.69
2022-09-20T18:06:28.696Z,95153.78
2022-09-20T18:08:57.838Z,95177.16
2022-09-20T18:11:34.601Z,95176.09
2022-09-20T18:14:02.377Z,95190.88
2022-09-20T18:16:31.004Z,95188.59
2022-09-20T18:18:59.349Z,95170.78
2022-09-20T18:21:27.574Z,95185.28
2022-09-20T18:23:54.361Z,95181.59
2022-09-20T18:26:22.886Z,95183.03
2022-09-20T18:28:58.212Z,95191.72
2022-09-20T18:31:32.452Z,95199.25
2022-09-20T18:34:00.889Z,95205.16
2022-09-20T18:36:28.973Z,95193.91
2022-09-20T18:38:57.325Z,95202.47
2022-09-20T18:41:28.840Z,95205.44
2022-09-20T18:43:56.148Z,95199.28
2022-09-20T18:46:25.021Z,95206.69
2022-09-20T18:48:52.924Z,95203.91
2022-09-20T18:51:20.367Z,95216.84
2022-09-20T18:53:47.538Z,95215.50
2022-09-20T18:56:22.814Z,95209.25
2022-09-20T18:58:51.692Z,95216.69
2022-09-20T19:01:51.000Z,95215.25
2022-09-20T19:04:36.469Z,95217.50
2022-09-20T19:07:27.382Z,95222.03
2022-09-20T19:10:05.958Z,95220.00
2022-09-20T19:12:48.594Z,95218.19
2022-09-20T19:15:38.648Z,95226.84
2022-09-20T19:18:42.366Z,95223.38
2022-09-20T19:21:17.798Z,95233.28
2022-09-20T19:24:03.093Z,95233.91
2022-09-20T19:26:31.641Z,95234.88
2022-09-20T19:29:00.160Z,95225.19
2022-09-20T19:31:34.218Z,95234.66
2022-09-20T19:34:06.798Z,95243.41
2022-09-20T19:36:51.695Z,95231.75
2022-09-20T19:39:45.029Z,95238.94
2022-09-20T19:42:36.292Z,95244.41
2022-09-20T19:45:22.739Z,95239.88
2022-09-20T19:47:52.170Z,95237.00
2022-09-20T19:50:29.922Z,95250.16
2022-09-20T19:52:56.803Z,95248.16
2022-09-20T19:55:23.713Z,95233.28
2022-09-20T19:57:51.121Z,95231.44
2022-09-20T20:00:20.366Z,95239.41
2022-09-20T20:02:47.800Z,95251.03
2022-09-20T20:05:17.457Z,95247.63
2022-09-20T20:07:50.234Z,95260.34
2022-09-20T20:10:16.800Z,95260.03
2022-09-20T20:12:50.882Z,95251.47
2022-09-20T20:15:29.161Z,95260.91
2022-09-20T20:18:04.930Z,95259.41
2022-09-20T20:20:45.896Z,95263.09
2022-09-20T20:23:43.121Z,95257.59
2022-09-20T20:26:16.495Z,95258.88
2022-09-20T20:28:43.117Z,95257.38
2022-09-20T20:31:12.587Z,95265.00
2022-09-20T20:33:39.922Z,95270.25
2022-09-20T20:36:09.057Z,95265.28
2022-09-20T20:38:39.425Z,95276.84
2022-09-20T20:41:08.810Z,95273.50
2022-09-20T20:43:38.245Z,95279.34
2022-09-20T20:46:07.072Z,95257.56
2022-09-20T20:48:33.858Z,95263.88
2022-09-20T20:51:10.210Z,95273.25
2022-09-20T20:53:38.750Z,95279.19
2022-09-20T20:56:08.682Z,95277.75
2022-09-20T20:58:40.857Z,95285.31
2022-09-20T21:01:12.697Z,95282.34
2022-09-20T21:03:41.212Z,95288.53
2022-09-20T21:06:08.273Z,95277.94
2022-09-20T21:08:36.116Z,95282.75
2022-09-20T21:11:11.570Z,95287.03
2022-09-20T21:13:39.514Z,95288.16
2022-09-20T21:16:09.144Z,95284.09
2022-09-20T21:18:35.974Z,95286.66
2022-09-20T21:21:04.337Z,95286.78
2022-09-20T21:23:35.022Z,95286.34
2022-09-20T21:26:07.810Z,95282.75
2022-09-20T21:28:36.684Z,95286.19
2022-09-20T21:31:06.598Z,95284.38
2022-09-20T21:33:34.812Z,95288.97
2022-09-20T21:36:02.578Z,95289.34
2022-09-20T21:38:30.236Z,95284.47
2022-09-20T21:41:11.835Z,95285.47
2022-09-20T21:43:43.899Z,95285.72
2022-09-20T21:46:12.411Z,95296.31
2022-09-20T21:48:39.747Z,95293.47
2022-09-20T21:51:07.537Z,95293.34
2022-09-20T21:53:34.679Z,95290.53
2022-09-20T21:56:03.615Z,95290.84
2022-09-20T21:58:30.420Z,95282.28
2022-09-20T22:01:11.839Z,95289.41
2022-09-20T22:03:39.183Z,95290.09
2022-09-20T22:06:07.173Z,95299.63
2022-09-20T22:08:33.814Z,95290.84
2022-09-20T22:11:00.462Z,95283.16
2022-09-20T22:13:27.108Z,95286.47
2022-09-20T22:15:53.754Z,95284.84
2022-09-20T22:18:20.357Z,95289.50
2022-09-20T22:20:47.251Z,95282.06
2022-09-20T22:23:13.905Z,95281.22
2022-09-20T22:25:40.530Z,95271.84
2022-09-20T22:28:07.285Z,95272.38
2022-09-20T22:30:34.013Z,95261.72
2022-09-20T22:33:00.783Z,95270.25
2022-09-20T22:35:27.381Z,95274.00
2022-09-20T22:37:56.324Z,95273.78
2022-09-20T22:40:23.037Z,95269.47
2022-09-20T22:42:49.662Z,95273.19
2022-09-20T22:45:16.276Z,95264.47
2022-09-20T22:47:44.276Z,95274.06
2022-09-20T22:50:11.062Z,95266.97
2022-09-20T22:52:37.712Z,95269.66
2022-09-20T22:55:04.604Z,95262.22
2022-09-20T22:57:31.233Z,95267.78
2022-09-20T22:59:57.824Z,95278.28
2022-09-20T23:02:24.452Z,95267.78
2022-09-20T23:04:51.054Z,95279.25
2022-09-20T23:07:17.680Z,95274.50
2022-09-20T23:09:45.552Z,95266.84
2022-09-20T23:12:12.173Z,95279.47
2022-09-20T23:14:38.785Z,95275.72
2022-09-20T23:17:05.431Z,95264.59
2022-09-20T23:19:32.038Z,95272.38
2022-09-20T23:21:58.741Z,95276.81
2022-09-20T23:24:25.364Z,95271.84
2022-09-20T23:26:52.093Z,95281.59
2022-09-20T23:29:18.748Z,95278.72
2022-09-20T23:31:47.394Z,95273.84
2022-09-20T23:34:15.358Z,95289.66
2022-09-20T23:36:42.227Z,95290.78
2022-09-20T23:39:09.828Z,95267.34
2022-09-20T23:41:36.855Z,95268.25
2022-09-20T23:44:06.239Z,95262.69
2022-09-20T23:46:33.385Z,95263.78
2022-09-20T23:49:00.347Z,95274.09
2022-09-20T23:51:28.564Z,95271.72
2022-09-20T23:53:55.205Z,95275.59
2022-09-20T23:56:22.516Z,95275.00
2022-09-20T23:58:50.239Z,95263.69
